sensor_id;sensor_type;location;lat;lon;timestamp;P1;durP1;ratioP1;P2;durP2;ratioP2
20441;SDS011;10380;52.102;20.614;2024-02-14T00:01:37;30.63;;;14.17;;
20441;SDS011;10380;52.102;20.614;2024-02-14T00:04:10;28.97;;;13.53;;
20441;SDS011;10380;52.102;20.614;2024-02-14T00:06:40;23.97;;;12.13;;
20441;SDS011;10380;52.102;20.614;2024-02-14T00:09:09;20.70;;;11.60;;
20441;SDS011;10380;52.102;20.614;2024-02-14T00:11:36;25.83;;;12.87;;
20441;SDS011;10380;52.102;20.614;2024-02-14T00:14:05;20.63;;;11.87;;
20441;SDS011;10380;52.102;20.614;2024-02-14T00:16:33;21.30;;;11.40;;
20441;SDS011;10380;52.102;20.614;2024-02-14T00:19:01;21.23;;;11.10;;
20441;SDS011;10380;52.102;20.614;2024-02-14T00:21:29;23.13;;;12.17;;
20441;SDS011;10380;52.102;20.614;2024-02-14T00:24:00;19.27;;;11.77;;
20441;SDS011;10380;52.102;20.614;2024-02-14T00:26:28;23.07;;;11.43;;
20441;SDS011;10380;52.102;20.614;2024-02-14T00:28:55;28.17;;;13.07;;
20441;SDS011;10380;52.102;20.614;2024-02-14T00:31:22;23.33;;;12.70;;
20441;SDS011;10380;52.102;20.614;2024-02-14T00:33:49;21.77;;;11.83;;
20441;SDS011;10380;52.102;20.614;2024-02-14T00:36:17;19.10;;;11.27;;
20441;SDS011;10380;52.102;20.614;2024-02-14T00:38:44;23.67;;;12.20;;
20441;SDS011;10380;52.102;20.614;2024-02-14T00:41:11;18.77;;;10.97;;
20441;SDS011;10380;52.102;20.614;2024-02-14T00:43:39;19.73;;;11.27;;
20441;SDS011;10380;52.102;20.614;2024-02-14T00:46:08;22.10;;;12.67;;
20441;SDS011;10380;52.102;20.614;2024-02-14T00:48:35;26.53;;;13.23;;
20441;SDS011;10380;52.102;20.614;2024-02-14T00:51:02;25.93;;;12.53;;
20441;SDS011;10380;52.102;20.614;2024-02-14T00:53:29;22.93;;;12.50;;
20441;SDS011;10380;52.102;20.614;2024-02-14T00:55:57;22.70;;;11.40;;
20441;SDS011;10380;52.102;20.614;2024-02-14T00:58:23;18.40;;;11.50;;
20441;SDS011;10380;52.102;20.614;2024-02-14T01:00:51;22.23;;;11.37;;
20441;SDS011;10380;52.102;20.614;2024-02-14T01:03:18;17.27;;;11.07;;
20441;SDS011;10380;52.102;20.614;2024-02-14T01:05:45;22.30;;;11.73;;
20441;SDS011;10380;52.102;20.614;2024-02-14T01:08:14;16.33;;;11.63;;
20441;SDS011;10380;52.102;20.614;2024-02-14T01:10:42;21.83;;;10.87;;
20441;SDS011;10380;52.102;20.614;2024-02-14T01:13:08;16.53;;;10.67;;
20441;SDS011;10380;52.102;20.614;2024-02-14T01:15:36;20.03;;;11.47;;
20441;SDS011;10380;52.102;20.614;2024-02-14T01:18:03;20.17;;;11.80;;
20441;SDS011;10380;52.102;20.614;2024-02-14T01:20:30;23.73;;;14.57;;
20441;SDS011;10380;52.102;20.614;2024-02-14T01:22:58;21.53;;;12.07;;
20441;SDS011;10380;52.102;20.614;2024-02-14T01:25:26;24.33;;;13.40;;
20441;SDS011;10380;52.102;20.614;2024-02-14T01:27:52;23.20;;;11.87;;
20441;SDS011;10380;52.102;20.614;2024-02-14T01:30:19;18.57;;;11.00;;
20441;SDS011;10380;52.102;20.614;2024-02-14T01:32:47;18.20;;;10.30;;
20441;SDS011;10380;52.102;20.614;2024-02-14T01:35:14;20.73;;;10.47;;
20441;SDS011;10380;52.102;20.614;2024-02-14T01:37:42;20.70;;;11.57;;
20441;SDS011;10380;52.102;20.614;2024-02-14T01:40:18;20.93;;;12.27;;
20441;SDS011;10380;52.102;20.614;2024-02-14T01:42:45;21.67;;;12.87;;
20441;SDS011;10380;52.102;20.614;2024-02-14T01:45:13;19.70;;;11.77;;
20441;SDS011;10380;52.102;20.614;2024-02-14T01:47:40;21.43;;;12.17;;
20441;SDS011;10380;52.102;20.614;2024-02-14T01:50:08;19.33;;;10.63;;
20441;SDS011;10380;52.102;20.614;2024-02-14T01:52:38;23.30;;;12.83;;
20441;SDS011;10380;52.102;20.614;2024-02-14T01:55:06;18.63;;;11.63;;
20441;SDS011;10380;52.102;20.614;2024-02-14T01:57:36;19.70;;;12.00;;
20441;SDS011;10380;52.102;20.614;2024-02-14T02:00:05;19.43;;;12.10;;
20441;SDS011;10380;52.102;20.614;2024-02-14T02:02:36;19.90;;;11.50;;
20441;SDS011;10380;52.102;20.614;2024-02-14T02:05:04;18.27;;;11.90;;
20441;SDS011;10380;52.102;20.614;2024-02-14T02:07:34;19.73;;;11.23;;
20441;SDS011;10380;52.102;20.614;2024-02-14T02:10:01;19.60;;;12.07;;
20441;SDS011;10380;52.102;20.614;2024-02-14T02:12:30;24.07;;;11.73;;
20441;SDS011;10380;52.102;20.614;2024-02-14T02:14:58;19.17;;;11.57;;
20441;SDS011;10380;52.102;20.614;2024-02-14T02:17:26;22.43;;;12.23;;
20441;SDS011;10380;52.102;20.614;2024-02-14T02:19:53;24.23;;;13.17;;
20441;SDS011;10380;52.102;20.614;2024-02-14T02:22:21;19.97;;;11.67;;
20441;SDS011;10380;52.102;20.614;2024-02-14T02:24:50;20.30;;;10.83;;
20441;SDS011;10380;52.102;20.614;2024-02-14T02:27:17;18.10;;;11.30;;
20441;SDS011;10380;52.102;20.614;2024-02-14T02:29:44;18.70;;;10.70;;
20441;SDS011;10380;52.102;20.614;2024-02-14T02:32:12;22.13;;;11.63;;
20441;SDS011;10380;52.102;20.614;2024-02-14T02:34:39;15.83;;;10.13;;
20441;SDS011;10380;52.102;20.614;2024-02-14T02:37:08;20.93;;;11.83;;
20441;SDS011;10380;52.102;20.614;2024-02-14T02:39:35;20.57;;;10.90;;
20441;SDS011;10380;52.102;20.614;2024-02-14T02:42:03;22.47;;;11.80;;
20441;SDS011;10380;52.102;20.614;2024-02-14T02:44:31;18.43;;;11.80;;
20441;SDS011;10380;52.102;20.614;2024-02-14T02:46:58;21.20;;;11.00;;
20441;SDS011;10380;52.102;20.614;2024-02-14T02:49:27;17.57;;;10.97;;
20441;SDS011;10380;52.102;20.614;2024-02-14T02:51:56;21.13;;;10.73;;
20441;SDS011;10380;52.102;20.614;2024-02-14T02:54:24;19.17;;;10.40;;
20441;SDS011;10380;52.102;20.614;2024-02-14T02:56:51;23.20;;;11.03;;
20441;SDS011;10380;52.102;20.614;2024-02-14T02:59:18;22.17;;;11.70;;
20441;SDS011;10380;52.102;20.614;2024-02-14T03:01:45;21.63;;;9.97;;
20441;SDS011;10380;52.102;20.614;2024-02-14T03:04:13;26.17;;;10.90;;
20441;SDS011;10380;52.102;20.614;2024-02-14T03:06:42;21.73;;;11.00;;
20441;SDS011;10380;52.102;20.614;2024-02-14T03:09:10;18.73;;;10.13;;
20441;SDS011;10380;52.102;20.614;2024-02-14T03:11:38;17.57;;;10.60;;
20441;SDS011;10380;52.102;20.614;2024-02-14T03:14:06;14.53;;;11.00;;
20441;SDS011;10380;52.102;20.614;2024-02-14T03:16:34;15.77;;;9.17;;
20441;SDS011;10380;52.102;20.614;2024-02-14T03:19:04;14.20;;;9.53;;
20441;SDS011;10380;52.102;20.614;2024-02-14T03:21:32;18.47;;;9.73;;
20441;SDS011;10380;52.102;20.614;2024-02-14T03:24:01;17.40;;;9.77;;
20441;SDS011;10380;52.102;20.614;2024-02-14T03:29:32;14.33;;;8.50;;
20441;SDS011;10380;52.102;20.614;2024-02-14T03:32:02;20.17;;;10.43;;
20441;SDS011;10380;52.102;20.614;2024-02-14T03:34:31;19.90;;;11.10;;
20441;SDS011;10380;52.102;20.614;2024-02-14T03:37:04;15.83;;;9.73;;
20441;SDS011;10380;52.102;20.614;2024-02-14T03:39:33;18.67;;;10.90;;
20441;SDS011;10380;52.102;20.614;2024-02-14T03:42:00;22.03;;;9.87;;
20441;SDS011;10380;52.102;20.614;2024-02-14T03:44:34;22.13;;;11.67;;
20441;SDS011;10380;52.102;20.614;2024-02-14T03:47:04;22.20;;;11.93;;
20441;SDS011;10380;52.102;20.614;2024-02-14T03:49:33;19.93;;;10.43;;
20441;SDS011;10380;52.102;20.614;2024-02-14T03:52:01;16.77;;;10.47;;
20441;SDS011;10380;52.102;20.614;2024-02-14T03:54:37;17.77;;;11.17;;
20441;SDS011;10380;52.102;20.614;2024-02-14T03:57:04;14.10;;;9.97;;
20441;SDS011;10380;52.102;20.614;2024-02-14T03:59:35;20.33;;;10.53;;
20441;SDS011;10380;52.102;20.614;2024-02-14T04:02:03;17.17;;;10.53;;
20441;SDS011;10380;52.102;20.614;2024-02-14T04:04:30;24.07;;;10.33;;
20441;SDS011;10380;52.102;20.614;2024-02-14T04:06:57;20.93;;;10.13;;
20441;SDS011;10380;52.102;20.614;2024-02-14T04:09:27;19.67;;;9.77;;
20441;SDS011;10380;52.102;20.614;2024-02-14T04:11:54;21.30;;;11.13;;
20441;SDS011;10380;52.102;20.614;2024-02-14T04:14:22;22.83;;;10.90;;
20441;SDS011;10380;52.102;20.614;2024-02-14T04:16:51;20.63;;;11.47;;
20441;SDS011;10380;52.102;20.614;2024-02-14T04:19:18;17.57;;;10.07;;
20441;SDS011;10380;52.102;20.614;2024-02-14T04:21:46;18.23;;;10.77;;
20441;SDS011;10380;52.102;20.614;2024-02-14T04:24:13;23.13;;;10.80;;
20441;SDS011;10380;52.102;20.614;2024-02-14T04:26:41;21.43;;;9.90;;
20441;SDS011;10380;52.102;20.614;2024-02-14T04:29:08;21.23;;;11.47;;
20441;SDS011;10380;52.102;20.614;2024-02-14T04:31:36;23.13;;;10.10;;
20441;SDS011;10380;52.102;20.614;2024-02-14T04:34:03;26.67;;;14.00;;
20441;SDS011;10380;52.102;20.614;2024-02-14T04:36:34;20.20;;;11.60;;
20441;SDS011;10380;52.102;20.614;2024-02-14T04:39:01;24.57;;;11.70;;
20441;SDS011;10380;52.102;20.614;2024-02-14T04:41:29;19.17;;;10.90;;
20441;SDS011;10380;52.102;20.614;2024-02-14T04:43:58;18.57;;;10.57;;
20441;SDS011;10380;52.102;20.614;2024-02-14T04:46:27;22.67;;;10.13;;
20441;SDS011;10380;52.102;20.614;2024-02-14T04:48:53;17.13;;;10.60;;
20441;SDS011;10380;52.102;20.614;2024-02-14T04:51:21;20.97;;;11.20;;
20441;SDS011;10380;52.102;20.614;2024-02-14T04:53:48;24.60;;;11.80;;
20441;SDS011;10380;52.102;20.614;2024-02-14T04:56:15;36.83;;;14.13;;
20441;SDS011;10380;52.102;20.614;2024-02-14T04:58:42;26.43;;;12.30;;
20441;SDS011;10380;52.102;20.614;2024-02-14T05:01:09;24.57;;;11.77;;
20441;SDS011;10380;52.102;20.614;2024-02-14T05:03:37;20.90;;;10.20;;
20441;SDS011;10380;52.102;20.614;2024-02-14T05:06:04;19.80;;;10.53;;
20441;SDS011;10380;52.102;20.614;2024-02-14T05:08:32;22.27;;;11.43;;
20441;SDS011;10380;52.102;20.614;2024-02-14T05:11:00;19.50;;;10.10;;
20441;SDS011;10380;52.102;20.614;2024-02-14T05:13:27;21.73;;;9.77;;
20441;SDS011;10380;52.102;20.614;2024-02-14T05:15:54;24.63;;;10.80;;
20441;SDS011;10380;52.102;20.614;2024-02-14T05:18:23;17.70;;;10.93;;
20441;SDS011;10380;52.102;20.614;2024-02-14T05:20:50;25.80;;;11.73;;
20441;SDS011;10380;52.102;20.614;2024-02-14T05:23:18;23.00;;;11.87;;
20441;SDS011;10380;52.102;20.614;2024-02-14T05:25:48;19.27;;;11.33;;
20441;SDS011;10380;52.102;20.614;2024-02-14T05:28:16;22.63;;;11.83;;
20441;SDS011;10380;52.102;20.614;2024-02-14T05:30:45;20.27;;;11.57;;
20441;SDS011;10380;52.102;20.614;2024-02-14T05:33:12;23.40;;;11.47;;
20441;SDS011;10380;52.102;20.614;2024-02-14T05:35:39;22.97;;;12.73;;
20441;SDS011;10380;52.102;20.614;2024-02-14T05:38:06;17.67;;;11.47;;
20441;SDS011;10380;52.102;20.614;2024-02-14T05:40:34;20.70;;;11.70;;
20441;SDS011;10380;52.102;20.614;2024-02-14T05:43:04;20.90;;;11.30;;
20441;SDS011;10380;52.102;20.614;2024-02-14T05:45:33;30.33;;;12.13;;
20441;SDS011;10380;52.102;20.614;2024-02-14T05:48:01;20.47;;;10.77;;
20441;SDS011;10380;52.102;20.614;2024-02-14T05:50:28;14.70;;;10.03;;
20441;SDS011;10380;52.102;20.614;2024-02-14T05:52:55;25.97;;;11.57;;
20441;SDS011;10380;52.102;20.614;2024-02-14T05:55:25;22.17;;;11.17;;
20441;SDS011;10380;52.102;20.614;2024-02-14T05:57:52;24.00;;;12.07;;
20441;SDS011;10380;52.102;20.614;2024-02-14T06:00:21;21.47;;;11.13;;
20441;SDS011;10380;52.102;20.614;2024-02-14T06:02:54;27.17;;;11.90;;
20441;SDS011;10380;52.102;20.614;2024-02-14T06:05:21;32.43;;;12.47;;
20441;SDS011;10380;52.102;20.614;2024-02-14T06:07:49;24.23;;;12.87;;
20441;SDS011;10380;52.102;20.614;2024-02-14T06:10:16;23.37;;;12.63;;
20441;SDS011;10380;52.102;20.614;2024-02-14T06:12:44;27.50;;;13.90;;
20441;SDS011;10380;52.102;20.614;2024-02-14T06:15:12;27.10;;;15.13;;
20441;SDS011;10380;52.102;20.614;2024-02-14T06:17:39;26.63;;;14.73;;
20441;SDS011;10380;52.102;20.614;2024-02-14T06:20:07;25.10;;;15.17;;
20441;SDS011;10380;52.102;20.614;2024-02-14T06:22:34;27.63;;;14.73;;
20441;SDS011;10380;52.102;20.614;2024-02-14T06:25:13;27.93;;;15.60;;
20441;SDS011;10380;52.102;20.614;2024-02-14T06:27:40;27.90;;;14.23;;
20441;SDS011;10380;52.102;20.614;2024-02-14T06:30:08;26.30;;;14.53;;
20441;SDS011;10380;52.102;20.614;2024-02-14T06:32:36;27.10;;;14.63;;
20441;SDS011;10380;52.102;20.614;2024-02-14T06:35:03;30.10;;;14.50;;
20441;SDS011;10380;52.102;20.614;2024-02-14T06:37:31;27.83;;;15.23;;
20441;SDS011;10380;52.102;20.614;2024-02-14T06:40:13;27.97;;;14.57;;
20441;SDS011;10380;52.102;20.614;2024-02-14T06:42:40;31.43;;;14.50;;
20441;SDS011;10380;52.102;20.614;2024-02-14T06:45:08;22.33;;;13.17;;
20441;SDS011;10380;52.102;20.614;2024-02-14T06:47:35;33.40;;;16.60;;
20441;SDS011;10380;52.102;20.614;2024-02-14T06:50:02;27.80;;;16.37;;
20441;SDS011;10380;52.102;20.614;2024-02-14T06:52:29;33.50;;;17.80;;
20441;SDS011;10380;52.102;20.614;2024-02-14T06:54:57;29.70;;;16.57;;
20441;SDS011;10380;52.102;20.614;2024-02-14T06:57:23;30.73;;;16.93;;
20441;SDS011;10380;52.102;20.614;2024-02-14T06:59:51;33.80;;;17.73;;
20441;SDS011;10380;52.102;20.614;2024-02-14T07:02:18;33.03;;;18.53;;
20441;SDS011;10380;52.102;20.614;2024-02-14T07:04:46;30.07;;;17.57;;
20441;SDS011;10380;52.102;20.614;2024-02-14T07:07:13;32.13;;;18.70;;
20441;SDS011;10380;52.102;20.614;2024-02-14T07:09:39;29.93;;;17.53;;
20441;SDS011;10380;52.102;20.614;2024-02-14T07:12:06;27.17;;;16.30;;
20441;SDS011;10380;52.102;20.614;2024-02-14T07:14:34;33.07;;;17.80;;
20441;SDS011;10380;52.102;20.614;2024-02-14T07:17:01;30.10;;;16.17;;
20441;SDS011;10380;52.102;20.614;2024-02-14T07:19:28;25.40;;;14.47;;
20441;SDS011;10380;52.102;20.614;2024-02-14T07:21:55;25.63;;;14.87;;
20441;SDS011;10380;52.102;20.614;2024-02-14T07:24:22;29.70;;;16.57;;
20441;SDS011;10380;52.102;20.614;2024-02-14T07:26:49;23.97;;;14.20;;
20441;SDS011;10380;52.102;20.614;2024-02-14T07:29:16;25.03;;;13.93;;
20441;SDS011;10380;52.102;20.614;2024-02-14T07:31:44;23.07;;;13.53;;
20441;SDS011;10380;52.102;20.614;2024-02-14T07:34:11;25.00;;;14.10;;
20441;SDS011;10380;52.102;20.614;2024-02-14T07:36:39;22.00;;;13.03;;
20441;SDS011;10380;52.102;20.614;2024-02-14T07:39:07;25.37;;;13.93;;
20441;SDS011;10380;52.102;20.614;2024-02-14T07:41:35;26.77;;;14.10;;
20441;SDS011;10380;52.102;20.614;2024-02-14T07:44:02;26.00;;;14.40;;
20441;SDS011;10380;52.102;20.614;2024-02-14T07:46:28;22.80;;;13.23;;
20441;SDS011;10380;52.102;20.614;2024-02-14T07:48:58;22.53;;;13.47;;
20441;SDS011;10380;52.102;20.614;2024-02-14T07:51:25;27.57;;;13.20;;
20441;SDS011;10380;52.102;20.614;2024-02-14T07:53:55;23.53;;;13.07;;
20441;SDS011;10380;52.102;20.614;2024-02-14T07:56:22;25.37;;;13.73;;
20441;SDS011;10380;52.102;20.614;2024-02-14T07:58:49;24.60;;;13.23;;
20441;SDS011;10380;52.102;20.614;2024-02-14T08:01:16;24.90;;;14.53;;
20441;SDS011;10380;52.102;20.614;2024-02-14T08:03:43;28.17;;;14.13;;
20441;SDS011;10380;52.102;20.614;2024-02-14T08:06:13;22.03;;;12.87;;
20441;SDS011;10380;52.102;20.614;2024-02-14T08:08:40;22.00;;;13.47;;
20441;SDS011;10380;52.102;20.614;2024-02-14T08:11:07;21.03;;;12.47;;
20441;SDS011;10380;52.102;20.614;2024-02-14T08:13:34;22.77;;;12.20;;
20441;SDS011;10380;52.102;20.614;2024-02-14T08:16:01;21.77;;;12.53;;
20441;SDS011;10380;52.102;20.614;2024-02-14T08:18:28;18.10;;;11.07;;
20441;SDS011;10380;52.102;20.614;2024-02-14T08:20:55;19.03;;;10.83;;
20441;SDS011;10380;52.102;20.614;2024-02-14T08:23:22;16.80;;;10.10;;
20441;SDS011;10380;52.102;20.614;2024-02-14T08:25:49;18.10;;;10.20;;
20441;SDS011;10380;52.102;20.614;2024-02-14T08:28:16;19.07;;;9.00;;
20441;SDS011;10380;52.102;20.614;2024-02-14T08:30:47;20.53;;;9.97;;
20441;SDS011;10380;52.102;20.614;2024-02-14T08:33:15;18.13;;;9.10;;
20441;SDS011;10380;52.102;20.614;2024-02-14T08:35:42;15.43;;;8.50;;
20441;SDS011;10380;52.102;20.614;2024-02-14T08:38:13;14.47;;;8.50;;
20441;SDS011;10380;52.102;20.614;2024-02-14T08:40:40;19.00;;;8.40;;
20441;SDS011;10380;52.102;20.614;2024-02-14T08:43:07;17.27;;;9.50;;
20441;SDS011;10380;52.102;20.614;2024-02-14T08:45:34;14.83;;;8.13;;
20441;SDS011;10380;52.102;20.614;2024-02-14T08:48:01;14.13;;;8.67;;
20441;SDS011;10380;52.102;20.614;2024-02-14T08:50:29;10.23;;;7.23;;
20441;SDS011;10380;52.102;20.614;2024-02-14T08:52:58;10.27;;;6.93;;
20441;SDS011;10380;52.102;20.614;2024-02-14T08:55:25;19.03;;;7.33;;
20441;SDS011;10380;52.102;20.614;2024-02-14T08:57:51;12.07;;;6.80;;
20441;SDS011;10380;52.102;20.614;2024-02-14T09:00:19;13.20;;;5.83;;
20441;SDS011;10380;52.102;20.614;2024-02-14T09:02:46;14.80;;;6.27;;
20441;SDS011;10380;52.102;20.614;2024-02-14T09:05:14;10.47;;;5.87;;
20441;SDS011;10380;52.102;20.614;2024-02-14T09:07:43;10.13;;;5.70;;
20441;SDS011;10380;52.102;20.614;2024-02-14T09:10:10;8.97;;;4.93;;
20441;SDS011;10380;52.102;20.614;2024-02-14T09:12:40;7.30;;;5.53;;
20441;SDS011;10380;52.102;20.614;2024-02-14T09:15:09;9.07;;;4.27;;
20441;SDS011;10380;52.102;20.614;2024-02-14T09:17:38;10.37;;;4.53;;
20441;SDS011;10380;52.102;20.614;2024-02-14T09:20:09;8.53;;;4.63;;
20441;SDS011;10380;52.102;20.614;2024-02-14T09:22:37;10.90;;;4.47;;
20441;SDS011;10380;52.102;20.614;2024-02-14T09:25:04;6.43;;;4.23;;
20441;SDS011;10380;52.102;20.614;2024-02-14T09:27:31;8.13;;;3.90;;
20441;SDS011;10380;52.102;20.614;2024-02-14T09:29:59;6.37;;;4.17;;
20441;SDS011;10380;52.102;20.614;2024-02-14T09:32:26;7.43;;;3.83;;
20441;SDS011;10380;52.102;20.614;2024-02-14T09:34:54;9.37;;;4.07;;
20441;SDS011;10380;52.102;20.614;2024-02-14T09:37:21;5.93;;;3.50;;
20441;SDS011;10380;52.102;20.614;2024-02-14T09:39:48;7.67;;;3.90;;
20441;SDS011;10380;52.102;20.614;2024-02-14T09:42:16;7.07;;;3.97;;
20441;SDS011;10380;52.102;20.614;2024-02-14T09:44:45;7.47;;;3.70;;
20441;SDS011;10380;52.102;20.614;2024-02-14T09:47:13;8.83;;;3.73;;
20441;SDS011;10380;52.102;20.614;2024-02-14T09:49:41;7.23;;;3.97;;
20441;SDS011;10380;52.102;20.614;2024-02-14T09:52:09;4.67;;;3.50;;
20441;SDS011;10380;52.102;20.614;2024-02-14T09:54:38;4.90;;;3.10;;
20441;SDS011;10380;52.102;20.614;2024-02-14T09:57:06;5.00;;;2.90;;
20441;SDS011;10380;52.102;20.614;2024-02-14T09:59:33;9.97;;;2.90;;
20441;SDS011;10380;52.102;20.614;2024-02-14T10:02:02;7.03;;;2.97;;
20441;SDS011;10380;52.102;20.614;2024-02-14T10:04:29;7.33;;;3.00;;
20441;SDS011;10380;52.102;20.614;2024-02-14T10:06:56;9.80;;;3.20;;
20441;SDS011;10380;52.102;20.614;2024-02-14T10:09:25;6.10;;;2.93;;
20441;SDS011;10380;52.102;20.614;2024-02-14T10:11:52;9.27;;;3.47;;
20441;SDS011;10380;52.102;20.614;2024-02-14T10:14:19;7.27;;;3.40;;
20441;SDS011;10380;52.102;20.614;2024-02-14T10:16:46;5.83;;;3.17;;
20441;SDS011;10380;52.102;20.614;2024-02-14T10:19:16;5.90;;;2.40;;
20441;SDS011;10380;52.102;20.614;2024-02-14T10:21:54;3.23;;;2.33;;
20441;SDS011;10380;52.102;20.614;2024-02-14T10:24:24;3.67;;;2.57;;
20441;SDS011;10380;52.102;20.614;2024-02-14T10:26:51;3.57;;;2.77;;
20441;SDS011;10380;52.102;20.614;2024-02-14T10:29:19;5.07;;;2.47;;
20441;SDS011;10380;52.102;20.614;2024-02-14T10:31:47;2.97;;;2.40;;
20441;SDS011;10380;52.102;20.614;2024-02-14T10:34:14;5.07;;;3.53;;
20441;SDS011;10380;52.102;20.614;2024-02-14T10:36:43;6.63;;;3.87;;
20441;SDS011;10380;52.102;20.614;2024-02-14T10:39:13;29.60;;;13.80;;
20441;SDS011;10380;52.102;20.614;2024-02-14T10:41:42;18.07;;;8.80;;
20441;SDS011;10380;52.102;20.614;2024-02-14T10:44:09;7.23;;;4.07;;
20441;SDS011;10380;52.102;20.614;2024-02-14T10:46:37;7.63;;;3.33;;
20441;SDS011;10380;52.102;20.614;2024-02-14T10:49:06;4.17;;;2.50;;
20441;SDS011;10380;52.102;20.614;2024-02-14T10:51:34;3.30;;;2.60;;
20441;SDS011;10380;52.102;20.614;2024-02-14T10:54:08;5.03;;;3.07;;
20441;SDS011;10380;52.102;20.614;2024-02-14T10:56:41;5.70;;;4.77;;
20441;SDS011;10380;52.102;20.614;2024-02-14T10:59:13;6.13;;;3.20;;
20441;SDS011;10380;52.102;20.614;2024-02-14T11:01:44;4.33;;;2.50;;
20441;SDS011;10380;52.102;20.614;2024-02-14T11:04:12;4.93;;;3.07;;
20441;SDS011;10380;52.102;20.614;2024-02-14T11:06:51;3.27;;;2.80;;
20441;SDS011;10380;52.102;20.614;2024-02-14T11:09:31;10.30;;;3.20;;
20441;SDS011;10380;52.102;20.614;2024-02-14T11:12:03;5.80;;;2.93;;
20441;SDS011;10380;52.102;20.614;2024-02-14T11:14:34;4.70;;;3.17;;
20441;SDS011;10380;52.102;20.614;2024-02-14T11:17:12;5.00;;;3.93;;
20441;SDS011;10380;52.102;20.614;2024-02-14T11:19:39;7.20;;;3.10;;
20441;SDS011;10380;52.102;20.614;2024-02-14T11:22:17;4.83;;;2.53;;
20441;SDS011;10380;52.102;20.614;2024-02-14T11:24:45;9.97;;;3.50;;
20441;SDS011;10380;52.102;20.614;2024-02-14T11:27:13;5.37;;;2.70;;
20441;SDS011;10380;52.102;20.614;2024-02-14T11:29:59;6.37;;;2.67;;
20441;SDS011;10380;52.102;20.614;2024-02-14T11:32:27;7.67;;;2.87;;
20441;SDS011;10380;52.102;20.614;2024-02-14T11:34:55;6.10;;;2.43;;
20441;SDS011;10380;52.102;20.614;2024-02-14T11:37:28;5.50;;;2.87;;
20441;SDS011;10380;52.102;20.614;2024-02-14T11:39:56;6.80;;;3.87;;
20441;SDS011;10380;52.102;20.614;2024-02-14T11:42:24;6.20;;;3.63;;
20441;SDS011;10380;52.102;20.614;2024-02-14T11:44:52;5.63;;;3.27;;
20441;SDS011;10380;52.102;20.614;2024-02-14T11:47:23;6.03;;;3.27;;
20441;SDS011;10380;52.102;20.614;2024-02-14T11:49:50;3.37;;;2.27;;
20441;SDS011;10380;52.102;20.614;2024-02-14T11:52:19;6.93;;;3.23;;
20441;SDS011;10380;52.102;20.614;2024-02-14T11:54:46;6.50;;;3.20;;
20441;SDS011;10380;52.102;20.614;2024-02-14T11:57:17;7.60;;;4.10;;
20441;SDS011;10380;52.102;20.614;2024-02-14T11:59:48;4.00;;;2.80;;
20441;SDS011;10380;52.102;20.614;2024-02-14T12:02:17;7.93;;;3.47;;
20441;SDS011;10380;52.102;20.614;2024-02-14T12:04:47;5.03;;;3.05;;
20441;SDS011;10380;52.102;20.614;2024-02-14T12:07:17;4.27;;;3.10;;
20441;SDS011;10380;52.102;20.614;2024-02-14T12:09:45;8.55;;;3.55;;
20441;SDS011;10380;52.102;20.614;2024-02-14T12:12:12;8.77;;;4.57;;
20441;SDS011;10380;52.102;20.614;2024-02-14T12:14:40;5.95;;;3.72;;
20441;SDS011;10380;52.102;20.614;2024-02-14T12:17:09;7.53;;;3.38;;
20441;SDS011;10380;52.102;20.614;2024-02-14T12:19:36;7.72;;;3.97;;
20441;SDS011;10380;52.102;20.614;2024-02-14T12:22:09;6.18;;;3.45;;
20441;SDS011;10380;52.102;20.614;2024-02-14T12:24:44;6.88;;;4.30;;
20441;SDS011;10380;52.102;20.614;2024-02-14T12:27:12;6.63;;;4.55;;
20441;SDS011;10380;52.102;20.614;2024-02-14T12:29:40;7.90;;;4.35;;
20441;SDS011;10380;52.102;20.614;2024-02-14T12:32:07;9.48;;;4.30;;
20441;SDS011;10380;52.102;20.614;2024-02-14T12:34:34;6.70;;;3.60;;
20441;SDS011;10380;52.102;20.614;2024-02-14T12:37:02;8.30;;;4.00;;
20441;SDS011;10380;52.102;20.614;2024-02-14T12:39:29;8.80;;;4.32;;
20441;SDS011;10380;52.102;20.614;2024-02-14T12:41:56;6.53;;;3.00;;
20441;SDS011;10380;52.102;20.614;2024-02-14T12:44:23;6.95;;;3.88;;
20441;SDS011;10380;52.102;20.614;2024-02-14T12:46:50;8.27;;;4.28;;
20441;SDS011;10380;52.102;20.614;2024-02-14T12:49:18;12.25;;;4.35;;
20441;SDS011;10380;52.102;20.614;2024-02-14T12:51:45;8.43;;;5.53;;
20441;SDS011;10380;52.102;20.614;2024-02-14T12:54:12;10.68;;;4.53;;
20441;SDS011;10380;52.102;20.614;2024-02-14T12:56:40;6.68;;;3.70;;
20441;SDS011;10380;52.102;20.614;2024-02-14T12:59:08;6.57;;;4.03;;
20441;SDS011;10380;52.102;20.614;2024-02-14T13:01:41;4.65;;;3.25;;
20441;SDS011;10380;52.102;20.614;2024-02-14T13:04:08;8.02;;;3.88;;
20441;SDS011;10380;52.102;20.614;2024-02-14T13:06:36;7.38;;;5.40;;
20441;SDS011;10380;52.102;20.614;2024-02-14T13:09:06;6.50;;;4.43;;
20441;SDS011;10380;52.102;20.614;2024-02-14T13:11:35;4.82;;;4.07;;
20441;SDS011;10380;52.102;20.614;2024-02-14T13:14:04;7.40;;;3.53;;
20441;SDS011;10380;52.102;20.614;2024-02-14T13:16:30;7.05;;;3.92;;
20441;SDS011;10380;52.102;20.614;2024-02-14T13:18:57;4.85;;;3.40;;
20441;SDS011;10380;52.102;20.614;2024-02-14T13:21:24;5.38;;;3.70;;
20441;SDS011;10380;52.102;20.614;2024-02-14T13:23:52;6.38;;;3.47;;
20441;SDS011;10380;52.102;20.614;2024-02-14T13:26:19;7.85;;;4.28;;
20441;SDS011;10380;52.102;20.614;2024-02-14T13:28:45;8.18;;;3.80;;
20441;SDS011;10380;52.102;20.614;2024-02-14T13:31:12;5.47;;;3.78;;
20441;SDS011;10380;52.102;20.614;2024-02-14T13:33:40;8.32;;;3.40;;
20441;SDS011;10380;52.102;20.614;2024-02-14T13:36:09;6.55;;;3.60;;
20441;SDS011;10380;52.102;20.614;2024-02-14T13:38:35;6.57;;;3.67;;
20441;SDS011;10380;52.102;20.614;2024-02-14T13:41:04;6.50;;;3.65;;
20441;SDS011;10380;52.102;20.614;2024-02-14T13:43:32;9.75;;;3.75;;
20441;SDS011;10380;52.102;20.614;2024-02-14T13:45:59;6.88;;;4.25;;
20441;SDS011;10380;52.102;20.614;2024-02-14T13:48:27;4.85;;;3.50;;
20441;SDS011;10380;52.102;20.614;2024-02-14T13:50:53;6.82;;;3.53;;
20441;SDS011;10380;52.102;20.614;2024-02-14T13:53:20;7.57;;;3.47;;
20441;SDS011;10380;52.102;20.614;2024-02-14T13:55:49;9.77;;;3.78;;
20441;SDS011;10380;52.102;20.614;2024-02-14T13:58:20;7.55;;;3.90;;
20441;SDS011;10380;52.102;20.614;2024-02-14T14:00:46;5.40;;;3.47;;
20441;SDS011;10380;52.102;20.614;2024-02-14T14:03:14;7.43;;;3.90;;
20441;SDS011;10380;52.102;20.614;2024-02-14T14:05:41;3.40;;;2.95;;
20441;SDS011;10380;52.102;20.614;2024-02-14T14:08:08;6.15;;;3.22;;
20441;SDS011;10380;52.102;20.614;2024-02-14T14:10:35;9.18;;;3.80;;
20441;SDS011;10380;52.102;20.614;2024-02-14T14:13:02;5.95;;;2.80;;
20441;SDS011;10380;52.102;20.614;2024-02-14T14:15:30;4.70;;;2.80;;
20441;SDS011;10380;52.102;20.614;2024-02-14T14:18:00;5.72;;;3.47;;
20441;SDS011;10380;52.102;20.614;2024-02-14T14:20:27;5.45;;;3.05;;
20441;SDS011;10380;52.102;20.614;2024-02-14T14:22:54;9.35;;;2.60;;
20441;SDS011;10380;52.102;20.614;2024-02-14T14:25:21;3.73;;;2.73;;
20441;SDS011;10380;52.102;20.614;2024-02-14T14:27:48;4.67;;;2.87;;